ěÝzenÝ letovÚho provozu ╚eskÚ republiky
Letiste: LKCS Aktualizace: 25.05.2024 07:01:05  UTC
 METAR LKCS 25.05. 07:00 ...
METAR LKCS 250700Z AUTO VRB02KT 9999 FEW003/// SCT005/// 13/13 Q1018=
 TAF LKCS 25.05. 05:23 RRO
TAF LKCS 250500Z 2506/2515 VRB02KT 9999 SCT030      TEMPO 2508/2515 7000 SHRA SCT025TCU      PROB30 TEMPO 2510/2515 3000 TSRA BKN020CB      BECMG 2511/2513 12006KT=